sensor_id;sensor_type;location;lat;lon;timestamp;temperature;humidity
47590;DHT22;33316;52.298;9.056;2024-03-23T00:54:25;10.00;99.90
47590;DHT22;33316;52.298;9.056;2024-03-23T00:56:51;10.00;99.90
47590;DHT22;33316;52.298;9.056;2024-03-23T00:59:18;10.00;99.90
47590;DHT22;33316;52.298;9.056;2024-03-23T01:01:46;10.00;99.90
47590;DHT22;33316;52.298;9.056;2024-03-23T01:04:13;10.00;99.90
47590;DHT22;33316;52.298;9.056;2024-03-23T01:06:40;10.00;99.90
47590;DHT22;33316;52.298;9.056;2024-03-23T01:09:11;10.00;99.90
47590;DHT22;33316;52.298;9.056;2024-03-23T01:11:38;10.00;99.90
47590;DHT22;33316;52.298;9.056;2024-03-23T01:14:05;10.00;99.90
47590;DHT22;33316;52.298;9.056;2024-03-23T01:16:31;10.00;99.90
47590;DHT22;33316;52.298;9.056;2024-03-23T01:18:58;10.00;99.90
47590;DHT22;33316;52.298;9.056;2024-03-23T01:21:24;10.00;99.90
47590;DHT22;33316;52.298;9.056;2024-03-23T01:23:51;10.00;99.90
47590;DHT22;33316;52.298;9.056;2024-03-23T01:26:17;10.00;99.90
47590;DHT22;33316;52.298;9.056;2024-03-23T01:28:45;10.00;99.90
47590;DHT22;33316;52.298;9.056;2024-03-23T01:31:11;10.00;99.90
47590;DHT22;33316;52.298;9.056;2024-03-23T01:33:38;10.00;99.90
47590;DHT22;33316;52.298;9.056;2024-03-23T01:36:05;10.00;99.90
47590;DHT22;33316;52.298;9.056;2024-03-23T01:38:32;9.90;99.90
47590;DHT22;33316;52.298;9.056;2024-03-23T01:40:58;9.90;99.90
47590;DHT22;33316;52.298;9.056;2024-03-23T01:43:25;10.00;99.90
47590;DHT22;33316;52.298;9.056;2024-03-23T01:45:52;9.90;99.90
47590;DHT22;33316;52.298;9.056;2024-03-23T01:48:26;9.90;99.90
47590;DHT22;33316;52.298;9.056;2024-03-23T01:50:52;9.90;99.90
47590;DHT22;33316;52.298;9.056;2024-03-23T01:53:19;9.90;99.90
47590;DHT22;33316;52.298;9.056;2024-03-23T01:55:47;9.90;99.90
47590;DHT22;33316;52.298;9.056;2024-03-23T01:58:14;9.90;99.90
47590;DHT22;33316;52.298;9.056;2024-03-23T02:00:40;9.90;99.90
47590;DHT22;33316;52.298;9.056;2024-03-23T02:06:01;9.90;99.90
47590;DHT22;33316;52.298;9.056;2024-03-23T02:08:30;9.90;99.90
47590;DHT22;33316;52.298;9.056;2024-03-23T02:10:56;9.90;99.90
47590;DHT22;33316;52.298;9.056;2024-03-23T02:13:24;9.90;99.90
47590;DHT22;33316;52.298;9.056;2024-03-23T02:15:50;9.80;99.90
47590;DHT22;33316;52.298;9.056;2024-03-23T02:18:17;9.80;99.90
47590;DHT22;33316;52.298;9.056;2024-03-23T02:20:43;9.80;99.90
47590;DHT22;33316;52.298;9.056;2024-03-23T02:23:14;9.80;99.90
47590;DHT22;33316;52.298;9.056;2024-03-23T02:25:40;9.80;99.90
47590;DHT22;33316;52.298;9.056;2024-03-23T02:28:07;9.80;99.90
47590;DHT22;33316;52.298;9.056;2024-03-23T02:30:33;9.80;99.90
47590;DHT22;33316;52.298;9.056;2024-03-23T02:33:00;9.80;99.90
47590;DHT22;33316;52.298;9.056;2024-03-23T02:35:26;9.80;99.90
47590;DHT22;33316;52.298;9.056;2024-03-23T02:37:53;9.80;99.90
47590;DHT22;33316;52.298;9.056;2024-03-23T02:40:22;9.70;99.90
47590;DHT22;33316;52.298;9.056;2024-03-23T02:42:49;9.70;99.90
47590;DHT22;33316;52.298;9.056;2024-03-23T02:45:18;9.70;99.90
47590;DHT22;33316;52.298;9.056;2024-03-23T02:47:45;9.70;99.90
47590;DHT22;33316;52.298;9.056;2024-03-23T02:50:11;9.70;99.90
47590;DHT22;33316;52.298;9.056;2024-03-23T02:52:38;9.70;99.90
47590;DHT22;33316;52.298;9.056;2024-03-23T02:55:04;9.70;99.90
47590;DHT22;33316;52.298;9.056;2024-03-23T02:57:32;9.70;99.90
47590;DHT22;33316;52.298;9.056;2024-03-23T02:59:58;9.70;99.90
47590;DHT22;33316;52.298;9.056;2024-03-23T03:02:25;9.70;99.90
47590;DHT22;33316;52.298;9.056;2024-03-23T03:04:51;9.60;99.90
47590;DHT22;33316;52.298;9.056;2024-03-23T03:07:18;9.60;99.90
47590;DHT22;33316;52.298;9.056;2024-03-23T03:09:44;9.60;99.90
47590;DHT22;33316;52.298;9.056;2024-03-23T03:12:11;9.60;99.90
47590;DHT22;33316;52.298;9.056;2024-03-23T03:14:38;9.60;99.90
47590;DHT22;33316;52.298;9.056;2024-03-23T03:17:05;9.60;99.90
47590;DHT22;33316;52.298;9.056;2024-03-23T03:19:31;9.60;99.90
47590;DHT22;33316;52.298;9.056;2024-03-23T03:21:58;9.50;99.90
47590;DHT22;33316;52.298;9.056;2024-03-23T03:24:24;9.50;99.90
47590;DHT22;33316;52.298;9.056;2024-03-23T03:26:51;9.50;99.90
47590;DHT22;33316;52.298;9.056;2024-03-23T03:29:19;9.50;99.90
47590;DHT22;33316;52.298;9.056;2024-03-23T03:31:47;9.50;99.90
47590;DHT22;33316;52.298;9.056;2024-03-23T03:34:13;9.50;99.90
47590;DHT22;33316;52.298;9.056;2024-03-23T03:36:40;9.50;99.90
47590;DHT22;33316;52.298;9.056;2024-03-23T03:39:06;9.40;99.90
47590;DHT22;33316;52.298;9.056;2024-03-23T03:41:33;9.40;99.90
47590;DHT22;33316;52.298;9.056;2024-03-23T03:43:59;9.40;99.90
47590;DHT22;33316;52.298;9.056;2024-03-23T03:46:27;9.40;99.90
47590;DHT22;33316;52.298;9.056;2024-03-23T03:48:58;9.40;99.90
47590;DHT22;33316;52.298;9.056;2024-03-23T03:51:25;9.40;99.90
47590;DHT22;33316;52.298;9.056;2024-03-23T03:53:51;9.40;99.90
47590;DHT22;33316;52.298;9.056;2024-03-23T03:56:20;9.40;99.90
47590;DHT22;33316;52.298;9.056;2024-03-23T03:58:47;9.40;99.90
47590;DHT22;33316;52.298;9.056;2024-03-23T04:01:14;9.40;99.90
47590;DHT22;33316;52.298;9.056;2024-03-23T04:03:40;9.30;99.90
47590;DHT22;33316;52.298;9.056;2024-03-23T04:06:10;9.30;99.90
47590;DHT22;33316;52.298;9.056;2024-03-23T04:08:36;9.30;99.90
47590;DHT22;33316;52.298;9.056;2024-03-23T04:11:03;9.30;99.90
47590;DHT22;33316;52.298;9.056;2024-03-23T04:13:29;9.30;99.90
47590;DHT22;33316;52.298;9.056;2024-03-23T04:15:56;9.30;99.90
47590;DHT22;33316;52.298;9.056;2024-03-23T04:18:22;9.20;99.90
47590;DHT22;33316;52.298;9.056;2024-03-23T04:20:49;9.20;99.90
47590;DHT22;33316;52.298;9.056;2024-03-23T04:23:16;9.20;99.90
47590;DHT22;33316;52.298;9.056;2024-03-23T04:25:43;9.20;99.90
47590;DHT22;33316;52.298;9.056;2024-03-23T04:28:09;9.20;99.90
47590;DHT22;33316;52.298;9.056;2024-03-23T04:30:36;9.20;99.90
47590;DHT22;33316;52.298;9.056;2024-03-23T04:33:02;9.10;99.90
47590;DHT22;33316;52.298;9.056;2024-03-23T04:35:30;9.10;99.90
47590;DHT22;33316;52.298;9.056;2024-03-23T04:37:56;9.10;99.90
47590;DHT22;33316;52.298;9.056;2024-03-23T04:40:25;9.10;99.90
47590;DHT22;33316;52.298;9.056;2024-03-23T04:42:52;9.10;99.90
47590;DHT22;33316;52.298;9.056;2024-03-23T04:45:19;9.10;99.90
47590;DHT22;33316;52.298;9.056;2024-03-23T04:47:48;9.10;99.90
47590;DHT22;33316;52.298;9.056;2024-03-23T04:50:15;9.10;99.90
47590;DHT22;33316;52.298;9.056;2024-03-23T04:52:42;9.10;99.90
47590;DHT22;33316;52.298;9.056;2024-03-23T04:55:09;9.00;99.90
47590;DHT22;33316;52.298;9.056;2024-03-23T04:57:36;9.10;99.90
47590;DHT22;33316;52.298;9.056;2024-03-23T05:00:05;9.10;99.90
47590;DHT22;33316;52.298;9.056;2024-03-23T05:02:43;9.00;99.90
47590;DHT22;33316;52.298;9.056;2024-03-23T05:05:11;9.00;99.90
47590;DHT22;33316;52.298;9.056;2024-03-23T05:07:36;9.00;99.90
47590;DHT22;33316;52.298;9.056;2024-03-23T05:10:04;9.00;99.90
47590;DHT22;33316;52.298;9.056;2024-03-23T05:12:30;9.00;99.90
47590;DHT22;33316;52.298;9.056;2024-03-23T05:14:59;9.00;99.90
47590;DHT22;33316;52.298;9.056;2024-03-23T05:17:25;9.00;99.90
47590;DHT22;33316;52.298;9.056;2024-03-23T05:19:51;9.00;99.90
47590;DHT22;33316;52.298;9.056;2024-03-23T05:22:17;9.00;99.90
47590;DHT22;33316;52.298;9.056;2024-03-23T05:24:45;8.90;99.90
47590;DHT22;33316;52.298;9.056;2024-03-23T05:27:11;8.90;99.90
47590;DHT22;33316;52.298;9.056;2024-03-23T05:29:38;8.90;99.90
47590;DHT22;33316;52.298;9.056;2024-03-23T05:32:06;9.00;99.90
47590;DHT22;33316;52.298;9.056;2024-03-23T05:34:33;8.90;99.90
47590;DHT22;33316;52.298;9.056;2024-03-23T05:36:59;9.00;99.90
47590;DHT22;33316;52.298;9.056;2024-03-23T05:39:26;8.90;99.90
47590;DHT22;33316;52.298;9.056;2024-03-23T05:41:53;8.90;99.90
47590;DHT22;33316;52.298;9.056;2024-03-23T05:44:20;8.90;99.90
47590;DHT22;33316;52.298;9.056;2024-03-23T05:46:46;8.90;99.90
47590;DHT22;33316;52.298;9.056;2024-03-23T05:49:15;8.90;99.90
47590;DHT22;33316;52.298;9.056;2024-03-23T05:51:42;8.90;99.90
47590;DHT22;33316;52.298;9.056;2024-03-23T05:54:09;8.90;99.90
47590;DHT22;33316;52.298;9.056;2024-03-23T05:56:35;8.90;99.90
47590;DHT22;33316;52.298;9.056;2024-03-23T05:59:01;8.90;99.90
47590;DHT22;33316;52.298;9.056;2024-03-23T06:01:29;8.90;99.90
47590;DHT22;33316;52.298;9.056;2024-03-23T06:03:58;8.90;99.90
47590;DHT22;33316;52.298;9.056;2024-03-23T06:06:25;8.90;99.90
47590;DHT22;33316;52.298;9.056;2024-03-23T06:08:55;8.90;99.90
47590;DHT22;33316;52.298;9.056;2024-03-23T06:11:21;8.90;99.90
47590;DHT22;33316;52.298;9.056;2024-03-23T06:13:48;9.00;99.90
47590;DHT22;33316;52.298;9.056;2024-03-23T06:16:14;9.00;99.90
47590;DHT22;33316;52.298;9.056;2024-03-23T06:18:41;9.00;99.90
47590;DHT22;33316;52.298;9.056;2024-03-23T06:21:13;9.00;99.90
47590;DHT22;33316;52.298;9.056;2024-03-23T06:23:42;9.00;99.90
47590;DHT22;33316;52.298;9.056;2024-03-23T06:26:08;9.00;99.90
47590;DHT22;33316;52.298;9.056;2024-03-23T06:28:35;9.00;99.90
47590;DHT22;33316;52.298;9.056;2024-03-23T06:31:08;9.00;99.90
47590;DHT22;33316;52.298;9.056;2024-03-23T06:33:35;9.00;99.90
47590;DHT22;33316;52.298;9.056;2024-03-23T06:36:01;9.00;99.90
47590;DHT22;33316;52.298;9.056;2024-03-23T06:38:28;9.00;99.90
47590;DHT22;33316;52.298;9.056;2024-03-23T06:40:56;9.00;99.90
47590;DHT22;33316;52.298;9.056;2024-03-23T06:43:23;9.00;99.90
47590;DHT22;33316;52.298;9.056;2024-03-23T06:45:52;9.00;99.90
47590;DHT22;33316;52.298;9.056;2024-03-23T06:48:19;9.00;99.90
47590;DHT22;33316;52.298;9.056;2024-03-23T06:50:45;9.00;99.90
47590;DHT22;33316;52.298;9.056;2024-03-23T06:53:13;9.00;99.90
47590;DHT22;33316;52.298;9.056;2024-03-23T06:55:39;9.00;99.90
47590;DHT22;33316;52.298;9.056;2024-03-23T06:58:07;9.00;99.90
47590;DHT22;33316;52.298;9.056;2024-03-23T07:00:34;9.00;99.90
47590;DHT22;33316;52.298;9.056;2024-03-23T07:03:00;9.10;99.90
47590;DHT22;33316;52.298;9.056;2024-03-23T07:05:26;9.10;99.90
47590;DHT22;33316;52.298;9.056;2024-03-23T07:07:53;9.10;99.90
47590;DHT22;33316;52.298;9.056;2024-03-23T07:10:19;9.10;99.90
47590;DHT22;33316;52.298;9.056;2024-03-23T07:12:46;9.10;99.90
47590;DHT22;33316;52.298;9.056;2024-03-23T07:15:13;9.20;99.90
47590;DHT22;33316;52.298;9.056;2024-03-23T07:17:41;9.10;99.90
47590;DHT22;33316;52.298;9.056;2024-03-23T07:20:08;9.10;99.90
47590;DHT22;33316;52.298;9.056;2024-03-23T07:22:36;9.10;99.90
47590;DHT22;33316;52.298;9.056;2024-03-23T07:25:02;9.10;99.90
47590;DHT22;33316;52.298;9.056;2024-03-23T07:27:29;9.20;99.90
47590;DHT22;33316;52.298;9.056;2024-03-23T07:29:55;9.10;99.90
47590;DHT22;33316;52.298;9.056;2024-03-23T07:32:23;9.20;99.90
47590;DHT22;33316;52.298;9.056;2024-03-23T07:34:49;9.20;99.90
47590;DHT22;33316;52.298;9.056;2024-03-23T07:37:16;9.20;99.90
47590;DHT22;33316;52.298;9.056;2024-03-23T07:39:42;9.20;99.90
47590;DHT22;33316;52.298;9.056;2024-03-23T07:42:09;9.10;99.90
47590;DHT22;33316;52.298;9.056;2024-03-23T07:44:35;9.10;99.90
47590;DHT22;33316;52.298;9.056;2024-03-23T07:47:02;9.10;99.90
47590;DHT22;33316;52.298;9.056;2024-03-23T07:49:29;9.10;99.90
47590;DHT22;33316;52.298;9.056;2024-03-23T07:51:56;9.10;99.90
47590;DHT22;33316;52.298;9.056;2024-03-23T07:54:22;9.20;99.90
47590;DHT22;33316;52.298;9.056;2024-03-23T07:56:49;9.20;99.90
47590;DHT22;33316;52.298;9.056;2024-03-23T07:59:14;9.30;99.90
47590;DHT22;33316;52.298;9.056;2024-03-23T08:01:41;9.40;99.90
47590;DHT22;33316;52.298;9.056;2024-03-23T08:04:07;9.50;99.90
47590;DHT22;33316;52.298;9.056;2024-03-23T08:06:36;9.50;99.90
47590;DHT22;33316;52.298;9.056;2024-03-23T08:09:03;9.60;99.90
47590;DHT22;33316;52.298;9.056;2024-03-23T08:11:32;9.60;99.90
47590;DHT22;33316;52.298;9.056;2024-03-23T08:14:00;9.60;99.90
47590;DHT22;33316;52.298;9.056;2024-03-23T08:16:28;9.70;99.90
47590;DHT22;33316;52.298;9.056;2024-03-23T08:18:54;9.80;99.90
47590;DHT22;33316;52.298;9.056;2024-03-23T08:21:22;9.80;99.90
47590;DHT22;33316;52.298;9.056;2024-03-23T08:23:49;9.80;99.90
47590;DHT22;33316;52.298;9.056;2024-03-23T08:26:16;9.80;99.90
47590;DHT22;33316;52.298;9.056;2024-03-23T08:28:43;9.80;99.90
47590;DHT22;33316;52.298;9.056;2024-03-23T08:31:11;9.80;99.90
47590;DHT22;33316;52.298;9.056;2024-03-23T08:33:38;9.70;99.90
47590;DHT22;33316;52.298;9.056;2024-03-23T08:36:06;9.70;99.90
47590;DHT22;33316;52.298;9.056;2024-03-23T08:38:35;9.70;99.90
47590;DHT22;33316;52.298;9.056;2024-03-23T08:41:05;9.70;99.90
47590;DHT22;33316;52.298;9.056;2024-03-23T08:43:32;9.70;99.90
47590;DHT22;33316;52.298;9.056;2024-03-23T08:46:05;9.60;99.90
47590;DHT22;33316;52.298;9.056;2024-03-23T08:48:31;9.60;99.90
47590;DHT22;33316;52.298;9.056;2024-03-23T08:51:00;9.70;99.90
47590;DHT22;33316;52.298;9.056;2024-03-23T08:53:28;9.70;99.90
47590;DHT22;33316;52.298;9.056;2024-03-23T08:55:55;9.70;99.90
47590;DHT22;33316;52.298;9.056;2024-03-23T08:58:23;9.70;99.90
47590;DHT22;33316;52.298;9.056;2024-03-23T09:00:51;9.70;99.90
47590;DHT22;33316;52.298;9.056;2024-03-23T09:03:17;9.70;99.90
47590;DHT22;33316;52.298;9.056;2024-03-23T09:05:44;9.60;99.90
47590;DHT22;33316;52.298;9.056;2024-03-23T09:08:10;9.60;99.80
47590;DHT22;33316;52.298;9.056;2024-03-23T09:10:39;9.60;99.50
47590;DHT22;33316;52.298;9.056;2024-03-23T09:13:05;9.60;99.20
47590;DHT22;33316;52.298;9.056;2024-03-23T09:15:34;9.60;99.20
47590;DHT22;33316;52.298;9.056;2024-03-23T09:18:00;9.60;99.10
47590;DHT22;33316;52.298;9.056;2024-03-23T09:20:32;9.50;99.00
47590;DHT22;33316;52.298;9.056;2024-03-23T09:22:58;9.60;99.00
47590;DHT22;33316;52.298;9.056;2024-03-23T09:25:25;9.60;98.90
47590;DHT22;33316;52.298;9.056;2024-03-23T09:27:54;9.70;99.00
47590;DHT22;33316;52.298;9.056;2024-03-23T09:30:21;9.80;98.80
47590;DHT22;33316;52.298;9.056;2024-03-23T09:32:48;9.80;98.40
47590;DHT22;33316;52.298;9.056;2024-03-23T09:35:15;9.80;98.10
47590;DHT22;33316;52.298;9.056;2024-03-23T09:37:41;9.90;98.20
47590;DHT22;33316;52.298;9.056;2024-03-23T09:40:10;9.90;98.30
47590;DHT22;33316;52.298;9.056;2024-03-23T09:42:37;10.00;98.30
47590;DHT22;33316;52.298;9.056;2024-03-23T09:45:06;10.00;97.80
47590;DHT22;33316;52.298;9.056;2024-03-23T09:47:32;10.00;97.80
47590;DHT22;33316;52.298;9.056;2024-03-23T09:50:01;10.10;97.20
47590;DHT22;33316;52.298;9.056;2024-03-23T09:52:27;10.10;97.00
47590;DHT22;33316;52.298;9.056;2024-03-23T09:54:54;10.20;97.20
47590;DHT22;33316;52.298;9.056;2024-03-23T09:57:20;10.20;97.30
47590;DHT22;33316;52.298;9.056;2024-03-23T09:59:46;10.30;97.40
47590;DHT22;33316;52.298;9.056;2024-03-23T10:02:12;10.40;97.40
47590;DHT22;33316;52.298;9.056;2024-03-23T10:04:42;10.40;97.10
47590;DHT22;33316;52.298;9.056;2024-03-23T10:07:14;10.50;97.10
47590;DHT22;33316;52.298;9.056;2024-03-23T10:09:42;10.60;97.20
47590;DHT22;33316;52.298;9.056;2024-03-23T10:12:09;10.60;97.20
47590;DHT22;33316;52.298;9.056;2024-03-23T10:14:37;10.80;97.20
47590;DHT22;33316;52.298;9.056;2024-03-23T10:17:16;10.80;97.00
47590;DHT22;33316;52.298;9.056;2024-03-23T10:19:44;10.90;96.50
47590;DHT22;33316;52.298;9.056;2024-03-23T10:22:17;10.90;96.40
47590;DHT22;33316;52.298;9.056;2024-03-23T10:24:44;11.00;96.40
47590;DHT22;33316;52.298;9.056;2024-03-23T10:27:12;11.10;96.60
47590;DHT22;33316;52.298;9.056;2024-03-23T10:29:42;11.10;95.90
47590;DHT22;33316;52.298;9.056;2024-03-23T10:32:13;11.10;95.60
47590;DHT22;33316;52.298;9.056;2024-03-23T10:34:39;11.20;95.30
47590;DHT22;33316;52.298;9.056;2024-03-23T10:37:08;11.20;94.50
47590;DHT22;33316;52.298;9.056;2024-03-23T10:39:37;11.10;94.10
47590;DHT22;33316;52.298;9.056;2024-03-23T10:42:07;11.20;93.70
47590;DHT22;33316;52.298;9.056;2024-03-23T10:44:34;11.20;93.50
47590;DHT22;33316;52.298;9.056;2024-03-23T10:47:01;11.20;93.20
47590;DHT22;33316;52.298;9.056;2024-03-23T10:49:29;11.30;93.00
47590;DHT22;33316;52.298;9.056;2024-03-23T10:52:00;11.30;92.70
47590;DHT22;33316;52.298;9.056;2024-03-23T10:54:27;11.30;92.00
47590;DHT22;33316;52.298;9.056;2024-03-23T10:56:59;11.30;91.80
47590;DHT22;33316;52.298;9.056;2024-03-23T10:59:27;11.30;91.40
47590;DHT22;33316;52.298;9.056;2024-03-23T11:01:56;11.30;91.20
47590;DHT22;33316;52.298;9.056;2024-03-23T11:04:33;11.30;91.10
47590;DHT22;33316;52.298;9.056;2024-03-23T11:07:03;11.20;90.70
47590;DHT22;33316;52.298;9.056;2024-03-23T11:09:50;11.20;90.80
47590;DHT22;33316;52.298;9.056;2024-03-23T11:12:25;11.20;91.20
47590;DHT22;33316;52.298;9.056;2024-03-23T11:14:52;11.10;91.30
47590;DHT22;33316;52.298;9.056;2024-03-23T11:17:20;11.10;91.90
47590;DHT22;33316;52.298;9.056;2024-03-23T11:19:53;11.00;92.50
47590;DHT22;33316;52.298;9.056;2024-03-23T11:22:41;10.90;92.80
47590;DHT22;33316;52.298;9.056;2024-03-23T11:25:16;10.80;93.10
47590;DHT22;33316;52.298;9.056;2024-03-23T11:27:45;10.80;93.40
47590;DHT22;33316;52.298;9.056;2024-03-23T11:30:15;10.70;93.50
47590;DHT22;33316;52.298;9.056;2024-03-23T11:32:46;10.70;93.80
47590;DHT22;33316;52.298;9.056;2024-03-23T11:35:25;10.60;94.00
47590;DHT22;33316;52.298;9.056;2024-03-23T11:38:06;10.60;94.00
47590;DHT22;33316;52.298;9.056;2024-03-23T11:40:34;10.50;94.10
47590;DHT22;33316;52.298;9.056;2024-03-23T11:43:04;10.50;94.40
47590;DHT22;33316;52.298;9.056;2024-03-23T11:45:35;10.50;94.60
47590;DHT22;33316;52.298;9.056;2024-03-23T11:48:04;10.50;94.80
47590;DHT22;33316;52.298;9.056;2024-03-23T11:50:30;10.50;95.10
47590;DHT22;33316;52.298;9.056;2024-03-23T11:53:15;10.50;95.30
47590;DHT22;33316;52.298;9.056;2024-03-23T11:55:48;10.50;95.00
47590;DHT22;33316;52.298;9.056;2024-03-23T11:58:16;10.40;94.70
47590;DHT22;33316;52.298;9.056;2024-03-23T12:00:42;10.20;94.70
47590;DHT22;33316;52.298;9.056;2024-03-23T12:03:09;10.00;94.50
47590;DHT22;33316;52.298;9.056;2024-03-23T12:05:36;9.80;94.40
47590;DHT22;33316;52.298;9.056;2024-03-23T12:08:21;9.60;94.50
47590;DHT22;33316;52.298;9.056;2024-03-23T12:10:50;9.50;94.70
47590;DHT22;33316;52.298;9.056;2024-03-23T12:13:18;9.50;94.90
47590;DHT22;33316;52.298;9.056;2024-03-23T12:15:45;9.40;95.20
47590;DHT22;33316;52.298;9.056;2024-03-23T12:18:13;9.50;95.50
47590;DHT22;33316;52.298;9.056;2024-03-23T12:20:39;9.50;95.80
47590;DHT22;33316;52.298;9.056;2024-03-23T12:23:10;9.60;95.90
47590;DHT22;33316;52.298;9.056;2024-03-23T12:25:39;9.60;96.10
47590;DHT22;33316;52.298;9.056;2024-03-23T12:28:08;9.70;96.10
47590;DHT22;33316;52.298;9.056;2024-03-23T12:30:34;9.70;96.20
47590;DHT22;33316;52.298;9.056;2024-03-23T12:33:02;9.70;96.40
47590;DHT22;33316;52.298;9.056;2024-03-23T12:35:29;9.70;96.80
47590;DHT22;33316;52.298;9.056;2024-03-23T12:37:55;9.80;96.50
47590;DHT22;33316;52.298;9.056;2024-03-23T12:40:22;9.80;96.40
47590;DHT22;33316;52.298;9.056;2024-03-23T12:42:49;9.80;96.50
47590;DHT22;33316;52.298;9.056;2024-03-23T12:45:16;9.90;95.90
47590;DHT22;33316;52.298;9.056;2024-03-23T12:47:43;9.90;95.80
47590;DHT22;33316;52.298;9.056;2024-03-23T12:50:10;10.00;95.80
47590;DHT22;33316;52.298;9.056;2024-03-23T12:52:37;10.00;95.60
47590;DHT22;33316;52.298;9.056;2024-03-23T12:55:03;10.10;95.60
47590;DHT22;33316;52.298;9.056;2024-03-23T12:57:31;10.10;95.40
47590;DHT22;33316;52.298;9.056;2024-03-23T12:59:58;10.10;95.30
47590;DHT22;33316;52.298;9.056;2024-03-23T13:02:27;10.10;95.00
47590;DHT22;33316;52.298;9.056;2024-03-23T13:04:53;10.10;94.60
47590;DHT22;33316;52.298;9.056;2024-03-23T13:07:22;10.10;94.40
47590;DHT22;33316;52.298;9.056;2024-03-23T13:09:50;10.10;94.10
47590;DHT22;33316;52.298;9.056;2024-03-23T13:12:18;10.10;94.00
47590;DHT22;33316;52.298;9.056;2024-03-23T13:14:44;10.10;93.80
47590;DHT22;33316;52.298;9.056;2024-03-23T13:17:11;10.10;93.80
47590;DHT22;33316;52.298;9.056;2024-03-23T13:19:39;10.20;94.00
47590;DHT22;33316;52.298;9.056;2024-03-23T13:22:06;10.20;94.20
47590;DHT22;33316;52.298;9.056;2024-03-23T13:24:32;10.20;94.20
47590;DHT22;33316;52.298;9.056;2024-03-23T13:26:59;10.20;94.20
47590;DHT22;33316;52.298;9.056;2024-03-23T13:29:25;10.30;94.20
47590;DHT22;33316;52.298;9.056;2024-03-23T13:31:52;10.30;94.20
47590;DHT22;33316;52.298;9.056;2024-03-23T13:34:19;10.30;94.20
47590;DHT22;33316;52.298;9.056;2024-03-23T13:36:47;10.40;94.00
47590;DHT22;33316;52.298;9.056;2024-03-23T13:39:14;10.40;93.90
47590;DHT22;33316;52.298;9.056;2024-03-23T13:41:42;10.40;93.50
47590;DHT22;33316;52.298;9.056;2024-03-23T13:44:09;10.40;93.50
47590;DHT22;33316;52.298;9.056;2024-03-23T13:46:39;10.30;93.50
47590;DHT22;33316;52.298;9.056;2024-03-23T13:49:05;10.20;93.90
47590;DHT22;33316;52.298;9.056;2024-03-23T13:51:32;10.10;94.20
47590;DHT22;33316;52.298;9.056;2024-03-23T13:53:59;9.90;94.40
47590;DHT22;33316;52.298;9.056;2024-03-23T13:56:27;9.80;94.30
47590;DHT22;33316;52.298;9.056;2024-03-23T13:58:54;9.60;94.30
47590;DHT22;33316;52.298;9.056;2024-03-23T14:01:24;9.50;94.10
47590;DHT22;33316;52.298;9.056;2024-03-23T14:03:50;9.30;93.70
47590;DHT22;33316;52.298;9.056;2024-03-23T14:06:17;9.20;93.70
47590;DHT22;33316;52.298;9.056;2024-03-23T14:08:43;9.20;93.70
47590;DHT22;33316;52.298;9.056;2024-03-23T14:11:11;9.20;93.90
47590;DHT22;33316;52.298;9.056;2024-03-23T14:13:37;9.10;93.90
47590;DHT22;33316;52.298;9.056;2024-03-23T14:16:06;9.10;93.90
47590;DHT22;33316;52.298;9.056;2024-03-23T14:18:32;9.10;93.90
47590;DHT22;33316;52.298;9.056;2024-03-23T14:21:00;9.00;94.10
47590;DHT22;33316;52.298;9.056;2024-03-23T14:23:26;9.10;94.40
47590;DHT22;33316;52.298;9.056;2024-03-23T14:25:57;9.10;94.60
47590;DHT22;33316;52.298;9.056;2024-03-23T14:28:24;9.30;94.80
47590;DHT22;33316;52.298;9.056;2024-03-23T14:30:54;9.40;95.00
47590;DHT22;33316;52.298;9.056;2024-03-23T14:33:20;9.40;94.90
47590;DHT22;33316;52.298;9.056;2024-03-23T14:35:52;9.50;95.00
47590;DHT22;33316;52.298;9.056;2024-03-23T14:38:18;9.60;95.10
47590;DHT22;33316;52.298;9.056;2024-03-23T14:40:45;9.70;94.90
47590;DHT22;33316;52.298;9.056;2024-03-23T14:43:11;9.70;94.80
47590;DHT22;33316;52.298;9.056;2024-03-23T14:46:06;9.80;94.80
47590;DHT22;33316;52.298;9.056;2024-03-23T14:48:34;9.80;94.90
47590;DHT22;33316;52.298;9.056;2024-03-23T14:51:01;9.90;94.90
47590;DHT22;33316;52.298;9.056;2024-03-23T14:53:30;10.00;95.00
47590;DHT22;33316;52.298;9.056;2024-03-23T14:55:58;10.00;94.90
47590;DHT22;33316;52.298;9.056;2024-03-23T14:58:25;10.00;95.00
47590;DHT22;33316;52.298;9.056;2024-03-23T15:01:00;10.00;94.90
47590;DHT22;33316;52.298;9.056;2024-03-23T15:03:25;10.00;94.80
47590;DHT22;33316;52.298;9.056;2024-03-23T15:05:54;10.00;94.80
47590;DHT22;33316;52.298;9.056;2024-03-23T15:08:20;9.90;94.40
47590;DHT22;33316;52.298;9.056;2024-03-23T15:10:47;9.70;93.80
47590;DHT22;33316;52.298;9.056;2024-03-23T15:13:13;9.50;93.60
47590;DHT22;33316;52.298;9.056;2024-03-23T15:15:41;9.40;93.60
47590;DHT22;33316;52.298;9.056;2024-03-23T15:18:10;9.20;93.70
47590;DHT22;33316;52.298;9.056;2024-03-23T15:20:38;9.10;93.90
47590;DHT22;33316;52.298;9.056;2024-03-23T15:23:04;9.10;94.10
47590;DHT22;33316;52.298;9.056;2024-03-23T15:25:32;9.00;94.20
47590;DHT22;33316;52.298;9.056;2024-03-23T15:27:58;9.00;94.40
47590;DHT22;33316;52.298;9.056;2024-03-23T15:30:25;9.00;94.70
47590;DHT22;33316;52.298;9.056;2024-03-23T15:32:51;9.10;94.80
47590;DHT22;33316;52.298;9.056;2024-03-23T15:35:20;9.10;95.00
47590;DHT22;33316;52.298;9.056;2024-03-23T15:37:49;9.20;95.20
47590;DHT22;33316;52.298;9.056;2024-03-23T15:40:16;9.20;95.30
47590;DHT22;33316;52.298;9.056;2024-03-23T15:42:42;9.20;95.30
47590;DHT22;33316;52.298;9.056;2024-03-23T15:45:09;9.20;95.20
47590;DHT22;33316;52.298;9.056;2024-03-23T15:47:35;9.20;95.20
47590;DHT22;33316;52.298;9.056;2024-03-23T15:50:03;9.20;95.30
47590;DHT22;33316;52.298;9.056;2024-03-23T15:52:38;9.20;95.40
47590;DHT22;33316;52.298;9.056;2024-03-23T15:55:05;9.20;95.30
47590;DHT22;33316;52.298;9.056;2024-03-23T15:57:35;9.20;95.30
47590;DHT22;33316;52.298;9.056;2024-03-23T16:00:03;9.20;95.20
47590;DHT22;33316;52.298;9.056;2024-03-23T16:02:37;9.20;95.30
47590;DHT22;33316;52.298;9.056;2024-03-23T16:05:05;9.20;95.30
47590;DHT22;33316;52.298;9.056;2024-03-23T16:07:34;9.10;95.30
47590;DHT22;33316;52.298;9.056;2024-03-23T16:10:03;9.10;95.30
47590;DHT22;33316;52.298;9.056;2024-03-23T16:12:32;9.10;95.20
47590;DHT22;33316;52.298;9.056;2024-03-23T16:15:00;9.10;95.20
47590;DHT22;33316;52.298;9.056;2024-03-23T16:17:26;9.10;95.20
47590;DHT22;33316;52.298;9.056;2024-03-23T16:19:52;9.10;95.20
47590;DHT22;33316;52.298;9.056;2024-03-23T16:22:19;9.10;95.20
47590;DHT22;33316;52.298;9.056;2024-03-23T16:24:46;9.10;95.20
47590;DHT22;33316;52.298;9.056;2024-03-23T16:27:13;9.10;95.20
47590;DHT22;33316;52.298;9.056;2024-03-23T16:29:40;9.10;95.20
47590;DHT22;33316;52.298;9.056;2024-03-23T16:32:06;9.10;95.20
47590;DHT22;33316;52.298;9.056;2024-03-23T16:34:33;9.10;95.10
47590;DHT22;33316;52.298;9.056;2024-03-23T16:37:00;9.10;95.20
47590;DHT22;33316;52.298;9.056;2024-03-23T16:39:25;9.10;95.10
47590;DHT22;33316;52.298;9.056;2024-03-23T16:41:52;9.10;95.10